Time;durP1;ratioP1;P1;durP2;ratioP2;P2;SDS_P1;SDS_P2;PMS_P1;PMS_P2;Temp;Humidity;BMP_temperature;BMP_pressure;BME280_temperature;BME280_humidity;BME280_pressure;Samples;Min_cycle;Max_cycle;Signal;HPM_P1;HPM_P2
2022/03/18 00:00:54;;;;;;;11.52;4.88;;;3.90;99.90;;;;;;2161371;66;20693;-73
2022/03/18 00:03:35;;;;;;;11.07;5.20;;;4.00;99.90;;;;;;2154829;66;20389;-74
2022/03/18 00:06:18;;;;;;;10.57;5.22;;;3.90;99.90;;;;;;2141052;66;20232;-74
2022/03/18 00:08:59;;;;;;;10.45;4.70;;;3.80;99.90;;;;;;2139410;67;20662;-74
2022/03/18 00:11:41;;;;;;;10.50;5.13;;;3.80;99.90;;;;;;2139023;66;20200;-73
2022/03/18 00:14:23;;;;;;;10.43;5.05;;;3.70;99.90;;;;;;2134670;67;20340;-73
2022/03/18 00:17:05;;;;;;;12.80;5.50;;;3.70;99.90;;;;;;2153749;66;20261;-74
2022/03/18 00:19:47;;;;;;;11.10;5.05;;;3.70;99.90;;;;;;2146467;66;20233;-73
2022/03/18 00:22:32;;;;;;;11.32;5.10;;;3.70;99.90;;;;;;2138763;67;20204;-75
2022/03/18 00:25:15;;;;;;;11.02;5.20;;;3.70;99.90;;;;;;2132279;67;20698;-74
2022/03/18 00:27:58;;;;;;;16.27;6.43;;;3.70;99.90;;;;;;2139430;67;20241;-75
2022/03/18 00:30:41;;;;;;;12.13;6.60;;;3.70;99.90;;;;;;2146635;66;20416;-75
2022/03/18 00:33:23;;;;;;;12.35;5.82;;;3.70;99.90;;;;;;2161332;66;20273;-74
2022/03/18 00:36:06;;;;;;;16.70;6.00;;;3.70;99.90;;;;;;2146086;66;20935;-74
2022/03/18 00:38:47;;;;;;;14.50;5.63;;;3.70;99.90;;;;;;2145135;66;20371;-74
2022/03/18 00:41:31;;;;;;;14.57;6.05;;;3.70;99.90;;;;;;2146777;66;20678;-74
2022/03/18 00:44:17;;;;;;;12.45;6.40;;;3.70;99.90;;;;;;2132488;67;20199;-74
2022/03/18 00:47:01;;;;;;;;;;;3.70;99.90;;;;;;2132157;67;20267;-73
2022/03/18 00:52:44;;;;;;;17.38;7.15;;;3.80;99.90;;;;;;2123009;67;20758;-75
2022/03/18 00:55:25;;;;;;;15.00;6.45;;;3.60;99.90;;;;;;2132553;67;20360;-74
2022/03/18 00:58:10;;;;;;;13.45;7.30;;;3.60;99.90;;;;;;2144538;66;20525;-73
2022/03/18 01:00:52;;;;;;;15.27;6.85;;;3.60;99.90;;;;;;2138400;67;20201;-74
2022/03/18 01:03:34;;;;;;;15.02;6.93;;;3.50;99.90;;;;;;2157538;66;20213;-73
2022/03/18 01:06:16;;;;;;;10.82;6.47;;;3.50;99.90;;;;;;2176693;65;20607;-74
2022/03/18 01:08:58;;;;;;;18.00;6.63;;;3.50;99.90;;;;;;2160647;66;20244;-75
2022/03/18 01:11:41;;;;;;;15.82;7.10;;;3.40;99.90;;;;;;2144859;66;20200;-74
2022/03/18 01:14:23;;;;;;;24.20;8.48;;;3.40;99.90;;;;;;2133408;67;20260;-75
2022/03/18 01:17:05;;;;;;;17.10;8.48;;;3.40;99.90;;;;;;2132480;67;20710;-73
2022/03/18 01:19:47;;;;;;;12.70;7.18;;;3.40;99.90;;;;;;2132018;67;20244;-75
2022/03/18 01:22:29;;;;;;;14.77;7.53;;;3.40;99.90;;;;;;2124943;67;20406;-73
2022/03/18 01:25:11;;;;;;;13.27;7.15;;;3.40;99.90;;;;;;2139330;67;20253;-74
2022/03/18 01:27:53;;;;;;;13.63;7.38;;;3.40;99.90;;;;;;2101171;67;20729;-74
2022/03/18 01:30:35;;;;;;;15.20;8.20;;;3.40;99.90;;;;;;2097044;68;20332;-73
2022/03/18 01:33:19;;;;;;;18.33;7.75;;;3.50;99.90;;;;;;2111848;67;20217;-73
2022/03/18 01:36:04;;;;;;;;;;;3.50;99.90;;;;;;2126261;67;20329;-74
2022/03/18 01:38:45;;;;;;;15.20;7.75;;;3.40;99.90;;;;;;2123428;67;20214;-74
2022/03/18 01:41:27;;;;;;;17.65;7.70;;;3.50;99.90;;;;;;2135373;67;20191;-74
2022/03/18 01:44:11;;;;;;;16.20;7.63;;;3.50;99.90;;;;;;2147422;66;20186;-73
2022/03/18 01:46:53;;;;;;;14.98;8.23;;;3.50;99.90;;;;;;2139688;66;20219;-74
2022/03/18 01:49:35;;;;;;;15.60;8.75;;;3.60;99.90;;;;;;2140258;66;20292;-73
2022/03/18 01:52:17;;;;;;;16.88;9.40;;;3.80;99.90;;;;;;2161980;66;20382;-73
2022/03/18 01:55:02;;;;;;;19.30;8.55;;;3.60;99.90;;;;;;2162057;66;20192;-74
2022/03/18 01:57:46;;;;;;;17.45;7.68;;;3.60;99.90;;;;;;2161857;66;20607;-75
2022/03/18 02:00:29;;;;;;;15.07;8.18;;;3.60;99.90;;;;;;2154441;66;20161;-72
2022/03/18 02:03:11;;;;;;;17.77;9.60;;;3.60;99.90;;;;;;2112937;67;20314;-74
2022/03/18 02:05:53;;;;;;;15.57;8.70;;;3.60;99.90;;;;;;2125820;67;20294;-74
2022/03/18 02:08:36;;;;;;;17.33;8.45;;;3.50;99.90;;;;;;2125959;67;20608;-74
2022/03/18 02:11:21;;;;;;;14.13;8.82;;;3.50;99.90;;;;;;2120656;67;20224;-73
2022/03/18 02:14:05;;;;;;;17.02;9.02;;;3.60;99.90;;;;;;2118887;67;20277;-73
2022/03/18 02:16:50;;;;;;;19.83;9.10;;;3.60;99.90;;;;;;2130360;67;20674;-74
2022/03/18 02:19:32;;;;;;;15.75;8.73;;;3.50;99.90;;;;;;2131860;67;20730;-73
2022/03/18 02:22:40;;;;;;;17.33;9.07;;;3.50;99.90;;;;;;2119058;67;20714;-73
2022/03/18 02:25:22;;;;;;;13.70;8.52;;;3.40;99.90;;;;;;2125660;67;20277;-74
2022/03/18 02:28:06;;;;;;;14.35;8.70;;;3.40;99.90;;;;;;2118660;67;20693;-73
2022/03/18 02:30:51;;;;;;;20.05;9.50;;;3.40;99.90;;;;;;2120171;67;21157;-74
2022/03/18 02:33:32;;;;;;;19.00;9.75;;;3.40;99.90;;;;;;2125156;67;20198;-74
2022/03/18 02:36:14;;;;;;;14.70;8.93;;;3.40;99.90;;;;;;2125925;67;20288;-74
2022/03/18 02:38:56;;;;;;;21.08;10.50;;;3.30;99.90;;;;;;2121911;67;20762;-74
2022/03/18 02:41:37;;;;;;;14.35;8.63;;;3.30;99.90;;;;;;2124327;67;20322;-74
2022/03/18 02:44:19;;;;;;;17.50;9.77;;;3.30;99.90;;;;;;2125817;67;20208;-73
2022/03/18 02:47:02;;;;;;;20.05;10.13;;;3.30;99.90;;;;;;2110917;67;20313;-75
2022/03/18 02:49:45;;;;;;;19.05;9.50;;;3.30;99.90;;;;;;2111897;67;20348;-75
2022/03/18 02:52:29;;;;;;;19.13;9.43;;;3.20;99.90;;;;;;2112514;67;20281;-73
2022/03/18 02:55:12;;;;;;;17.77;9.07;;;3.20;99.90;;;;;;2111971;67;20334;-73
2022/03/18 02:57:55;;;;;;;15.77;9.55;;;3.10;99.90;;;;;;2105179;68;20267;-73
2022/03/18 03:00:41;;;;;;;16.40;9.23;;;3.10;99.90;;;;;;2106909;67;20166;-73
2022/03/18 03:03:25;;;;;;;22.15;9.55;;;3.00;99.90;;;;;;2113422;67;20189;-74
2022/03/18 03:09:06;;;;;;;20.65;9.60;;;2.90;99.90;;;;;;2107255;67;20205;-73
2022/03/18 03:11:48;;;;;;;19.25;10.05;;;2.90;99.90;;;;;;2107257;67;20772;-74
2022/03/18 03:14:30;;;;;;;17.13;10.48;;;2.90;99.90;;;;;;2124974;67;20321;-74
2022/03/18 03:17:12;;;;;;;19.48;10.68;;;2.90;99.90;;;;;;2118758;67;20355;-73
2022/03/18 03:19:56;;;;;;;18.13;10.80;;;2.90;99.90;;;;;;2105390;67;20307;-74
2022/03/18 03:22:58;;;;;;;18.00;9.07;;;2.90;99.90;;;;;;2117820;67;20209;-73
2022/03/18 03:25:43;;;;;;;20.60;10.93;;;2.90;99.90;;;;;;2105732;67;20169;-73
2022/03/18 03:28:25;;;;;;;15.38;9.40;;;2.90;99.90;;;;;;2097488;68;20347;-74
2022/03/18 03:31:08;;;;;;;17.52;9.05;;;3.00;99.90;;;;;;2094691;68;20232;-72
2022/03/18 03:33:50;;;;;;;17.80;9.48;;;3.00;99.90;;;;;;2099298;68;20234;-74
2022/03/18 03:36:32;;;;;;;14.95;9.23;;;3.10;99.90;;;;;;2122508;67;20440;-74
2022/03/18 03:39:14;;;;;;;17.67;10.38;;;3.10;99.90;;;;;;2122946;67;20376;-74
2022/03/18 03:41:56;;;;;;;14.70;9.27;;;3.10;99.90;;;;;;2111124;67;20363;-74
2022/03/18 03:44:41;;;;;;;14.93;9.23;;;3.20;99.90;;;;;;2117641;67;20321;-75
2022/03/18 03:47:23;;;;;;;14.98;9.27;;;3.20;99.90;;;;;;2112686;67;20897;-73
2022/03/18 03:50:07;;;;;;;20.80;9.70;;;3.30;99.90;;;;;;2104658;68;20283;-74
2022/03/18 03:52:49;;;;;;;13.43;9.63;;;3.30;99.90;;;;;;2094404;68;20211;-74
2022/03/18 03:55:38;;;;;;;15.65;9.05;;;3.40;99.90;;;;;;2097446;68;20216;-74
2022/03/18 03:58:19;;;;;;;11.82;8.70;;;3.70;99.90;;;;;;2090658;68;20217;-73
2022/03/18 04:01:04;;;;;;;17.17;8.48;;;3.50;99.90;;;;;;2097474;68;20494;-74
2022/03/18 04:03:47;;;;;;;15.45;8.85;;;3.60;99.90;;;;;;2097278;68;20304;-74
2022/03/18 04:06:29;;;;;;;18.30;9.10;;;3.60;99.90;;;;;;2109435;67;20260;-74
2022/03/18 04:09:12;;;;;;;16.15;9.02;;;3.80;99.90;;;;;;2127711;67;20246;-75
2022/03/18 04:11:54;;;;;;;16.48;9.05;;;3.70;99.90;;;;;;2139586;67;20200;-74
2022/03/18 04:14:38;;;;;;;16.38;9.20;;;3.90;99.90;;;;;;2135091;67;20418;-74
2022/03/18 04:17:22;;;;;;;15.10;9.05;;;3.90;99.90;;;;;;2146716;66;20266;-74
2022/03/18 04:20:05;;;;;;;14.93;8.75;;;4.00;99.90;;;;;;2139376;67;20331;-74
2022/03/18 04:22:47;;;;;;;15.55;8.82;;;4.10;99.90;;;;;;2139439;67;20323;-74
2022/03/18 04:25:30;;;;;;;14.73;8.32;;;4.10;99.90;;;;;;2153061;66;20204;-73
2022/03/18 04:28:19;;;;;;;13.63;7.68;;;4.40;99.90;;;;;;2156073;66;20209;-75
2022/03/18 04:31:02;;;;;;;13.50;7.97;;;4.30;99.90;;;;;;2153411;66;20326;-74
2022/03/18 04:33:44;;;;;;;13.27;8.88;;;4.30;99.90;;;;;;2146380;66;20202;-73
2022/03/18 04:36:26;;;;;;;16.33;8.43;;;4.40;99.90;;;;;;2127029;67;20232;-74
2022/03/18 04:39:08;;;;;;;12.88;7.93;;;4.40;99.90;;;;;;2125399;67;20282;-74
2022/03/18 04:41:49;;;;;;;14.27;8.30;;;4.40;99.90;;;;;;2124405;67;20175;-74
2022/03/18 04:44:31;;;;;;;16.33;8.55;;;4.50;99.90;;;;;;2122918;67;20277;-74
2022/03/18 04:47:13;;;;;;;18.02;9.07;;;4.50;99.90;;;;;;2124833;67;20348;-74
2022/03/18 04:49:55;;;;;;;14.00;9.30;;;4.50;99.90;;;;;;2125227;67;20176;-74
2022/03/18 04:52:38;;;;;;;11.80;8.02;;;4.50;99.90;;;;;;2132211;67;20283;-74
2022/03/18 04:55:20;;;;;;;13.35;8.48;;;4.50;99.90;;;;;;2146723;66;20211;-73
2022/03/18 04:58:03;;;;;;;15.45;8.50;;;4.50;99.90;;;;;;2161348;66;20710;-74
2022/03/18 05:00:49;;;;;;;15.85;9.07;;;4.40;99.90;;;;;;2153245;66;20307;-74
2022/03/18 05:03:36;;;;;;;14.63;9.35;;;4.40;99.90;;;;;;2154123;66;20254;-74
2022/03/18 05:06:24;;;;;;;15.57;8.70;;;4.30;99.90;;;;;;2140500;67;20323;-73
2022/03/18 05:09:06;;;;;;;14.18;9.23;;;4.30;99.90;;;;;;2126401;67;20340;-73
2022/03/18 05:11:52;;;;;;;14.73;9.93;;;4.20;99.90;;;;;;2130341;67;20253;-74
2022/03/18 05:14:35;;;;;;;15.48;9.13;;;4.10;99.90;;;;;;2136014;67;20321;-73
2022/03/18 05:17:20;;;;;;;14.60;9.50;;;4.00;99.90;;;;;;2130598;67;20180;-74
2022/03/18 05:20:04;;;;;;;16.63;10.20;;;3.90;99.90;;;;;;2121714;67;20349;-73
2022/03/18 05:22:48;;;;;;;14.15;9.57;;;3.80;99.90;;;;;;2139082;67;20812;-74
2022/03/18 05:25:33;;;;;;;14.32;9.40;;;3.80;99.90;;;;;;2146997;66;20234;-75
2022/03/18 05:28:21;;;;;;;15.90;10.68;;;3.80;99.90;;;;;;2139369;67;20375;-75
2022/03/18 05:31:04;;;;;;;14.65;10.10;;;3.70;99.90;;;;;;2145794;66;20282;-73
2022/03/18 05:33:46;;;;;;;16.00;9.95;;;3.70;99.90;;;;;;2147452;66;20309;-74
2022/03/18 05:36:28;;;;;;;14.90;11.05;;;3.50;99.90;;;;;;2147307;66;20399;-73
2022/03/18 05:39:11;;;;;;;16.52;10.95;;;3.50;99.90;;;;;;2140353;66;20204;-73
2022/03/18 05:41:54;;;;;;;14.07;11.05;;;3.50;99.90;;;;;;2141560;66;20241;-74
2022/03/18 05:44:36;;;;;;;19.70;11.20;;;3.50;99.90;;;;;;2142369;66;20364;-74
2022/03/18 05:47:21;;;;;;;15.25;11.55;;;3.40;99.90;;;;;;2147474;66;20179;-73
2022/03/18 05:50:05;;;;;;;19.40;11.52;;;3.30;99.90;;;;;;2147128;66;20364;-73
2022/03/18 05:52:47;;;;;;;18.58;11.35;;;3.30;99.90;;;;;;2132867;67;20301;-74
2022/03/18 05:58:30;;;;;;;14.02;10.90;;;3.20;99.90;;;;;;2148785;66;20245;-74
2022/03/18 06:01:12;;;;;;;18.48;11.55;;;3.20;99.90;;;;;;2138616;67;20288;-75
2022/03/18 06:03:53;;;;;;;17.40;11.10;;;3.20;99.90;;;;;;2140129;67;20175;-72
2022/03/18 06:06:35;;;;;;;17.90;11.32;;;3.20;99.90;;;;;;2139418;67;20311;-74
2022/03/18 06:12:19;;;;;;;16.70;12.52;;;3.20;99.90;;;;;;2131282;67;20188;-73
2022/03/18 06:15:01;;;;;;;20.83;12.52;;;3.30;99.90;;;;;;2133536;67;20168;-75
2022/03/18 06:17:43;;;;;;;21.02;13.15;;;3.30;99.90;;;;;;2129176;67;20202;-74
2022/03/18 06:20:25;;;;;;;22.05;12.45;;;3.30;99.90;;;;;;2125299;67;20188;-74
2022/03/18 06:23:10;;;;;;;18.35;13.57;;;3.30;99.90;;;;;;2132268;67;20264;-74
2022/03/18 06:25:52;;;;;;;20.83;12.90;;;3.30;99.90;;;;;;2152889;66;20258;-74
2022/03/18 06:28:34;;;;;;;16.13;11.55;;;3.30;99.90;;;;;;2146009;66;20192;-75
2022/03/18 06:31:19;;;;;;;13.23;11.80;;;3.30;99.90;;;;;;2152335;66;20291;-74
2022/03/18 06:34:01;;;;;;;15.93;12.35;;;3.60;99.90;;;;;;2145976;66;20186;-74
2022/03/18 06:36:43;;;;;;;20.23;13.73;;;3.40;99.90;;;;;;2132914;67;20713;-74
2022/03/18 06:39:25;;;;;;;18.50;12.40;;;3.40;99.90;;;;;;2139885;67;20257;-75
2022/03/18 06:42:11;;;;;;;18.30;12.30;;;3.50;99.90;;;;;;2147354;66;20208;-74
2022/03/18 06:44:59;;;;;;;18.90;12.05;;;3.50;99.90;;;;;;2153413;66;20195;-74
2022/03/18 06:47:41;;;;;;;18.05;12.73;;;3.60;99.90;;;;;;2154077;66;20346;-73
2022/03/18 06:50:24;;;;;;;16.65;12.68;;;3.60;99.90;;;;;;2139641;66;20894;-74
2022/03/18 06:53:06;;;;;;;19.83;13.80;;;3.60;99.90;;;;;;2125612;67;20326;-74
2022/03/18 06:55:48;;;;;;;17.40;12.93;;;3.70;99.90;;;;;;2132762;67;20175;-74
2022/03/18 06:58:32;;;;;;;18.75;13.45;;;3.70;99.90;;;;;;2132457;67;20219;-73
2022/03/18 07:01:17;;;;;;;;;;;3.80;99.90;;;;;;2133211;67;20755;-73
2022/03/18 07:04:02;;;;;;;16.17;12.05;;;3.90;99.90;;;;;;2147065;66;20050;-73
2022/03/18 07:06:46;;;;;;;17.40;13.25;;;4.10;99.90;;;;;;2139815;66;20167;-74
2022/03/18 07:09:29;;;;;;;17.42;11.98;;;4.10;99.90;;;;;;2125488;67;20255;-74
2022/03/18 07:12:14;;;;;;;16.05;13.00;;;4.20;99.90;;;;;;2113253;67;20178;-75
2022/03/18 07:14:55;;;;;;;20.27;12.70;;;4.30;99.90;;;;;;2120619;67;20173;-73
2022/03/18 07:17:58;;;;;;;19.55;14.52;;;4.30;99.90;;;;;;2132670;67;20343;-74
2022/03/18 07:20:42;;;;;;;16.05;13.02;;;4.40;99.90;;;;;;2120534;67;20262;-74
2022/03/18 07:23:28;;;;;;;21.40;12.82;;;4.50;99.90;;;;;;2125931;67;20355;-74
2022/03/18 07:26:13;;;;;;;20.92;14.30;;;4.60;99.90;;;;;;2123949;67;20350;-74
2022/03/18 07:28:56;;;;;;;22.20;15.18;;;4.80;99.90;;;;;;2117579;67;20173;-75
2022/03/18 07:31:41;;;;;;;20.40;14.55;;;4.70;99.90;;;;;;2100021;68;20259;-74
2022/03/18 07:34:26;;;;;;;21.23;14.85;;;4.80;99.90;;;;;;2109796;67;20186;-74
2022/03/18 07:37:08;;;;;;;25.42;14.73;;;4.80;99.90;;;;;;2118383;67;20410;-74
2022/03/18 07:39:51;;;;;;;21.98;14.73;;;4.90;99.90;;;;;;2125293;67;20723;-74
2022/03/18 07:42:49;;;;;;;20.48;14.80;;;5.00;99.90;;;;;;2124096;67;20690;-73
2022/03/18 07:45:33;;;;;;;23.48;14.57;;;5.10;99.90;;;;;;2132178;67;20566;-74
2022/03/18 07:48:15;;;;;;;19.35;15.48;;;5.30;99.90;;;;;;2143945;66;20291;-74
2022/03/18 07:50:58;;;;;;;23.42;15.32;;;5.40;99.90;;;;;;2154089;66;20319;-74
2022/03/18 07:53:46;;;;;;;20.83;14.77;;;5.50;99.90;;;;;;2168800;66;20203;-74
2022/03/18 07:56:27;;;;;;;22.70;15.02;;;5.70;99.90;;;;;;2161140;66;20329;-74
2022/03/18 07:59:11;;;;;;;24.98;15.00;;;5.80;99.90;;;;;;2155863;66;20280;-74
2022/03/18 08:01:55;;;;;;;28.73;15.35;;;5.90;99.90;;;;;;2132383;67;20668;-73
2022/03/18 08:04:42;;;;;;;20.63;14.27;;;5.90;99.90;;;;;;2131995;67;20207;-76
2022/03/18 08:07:29;;;;;;;22.02;13.95;;;6.00;99.90;;;;;;2131664;67;20255;-77
2022/03/18 08:10:14;;;;;;;19.20;13.65;;;6.10;99.90;;;;;;2123797;67;20184;-74
2022/03/18 08:12:56;;;;;;;22.02;14.27;;;6.20;99.90;;;;;;2125608;67;20274;-74
2022/03/18 08:15:40;;;;;;;22.17;14.07;;;6.30;99.90;;;;;;2131363;67;20769;-75
2022/03/18 08:18:22;;;;;;;25.80;15.10;;;6.40;99.90;;;;;;2132749;67;20680;-75
2022/03/18 08:21:04;;;;;;;25.30;14.90;;;6.40;99.90;;;;;;2132674;67;20297;-75
2022/03/18 08:23:47;;;;;;;30.45;15.73;;;6.50;99.90;;;;;;2133805;67;20230;-76
2022/03/18 08:26:36;;;;;;;25.80;14.57;;;6.60;99.90;;;;;;2133013;67;20310;-73
2022/03/18 08:29:20;;;;;;;21.67;13.70;;;6.70;99.90;;;;;;2110217;67;20343;-76
2022/03/18 08:32:03;;;;;;;22.73;14.25;;;6.80;99.90;;;;;;2097221;68;20339;-75
2022/03/18 08:34:51;;;;;;;21.33;12.88;;;6.90;99.90;;;;;;2097143;68;20356;-74
2022/03/18 08:40:34;;;;;;;18.98;14.20;;;7.00;99.90;;;;;;2128518;67;20412;-74
2022/03/18 08:43:17;;;;;;;20.70;13.35;;;7.20;99.90;;;;;;2133437;67;20235;-74
2022/03/18 08:46:00;;;;;;;25.20;13.65;;;7.20;99.90;;;;;;2129130;67;20328;-74
2022/03/18 08:48:43;;;;;;;20.85;12.98;;;7.30;99.90;;;;;;2132972;67;20424;-75
2022/03/18 08:51:25;;;;;;;22.30;12.35;;;7.40;99.90;;;;;;2118844;67;20338;-74
2022/03/18 08:54:09;;;;;;;18.98;12.77;;;7.50;99.90;;;;;;2110973;67;20366;-75
2022/03/18 08:56:54;;;;;;;25.70;12.65;;;7.60;99.90;;;;;;2114669;67;20771;-75
2022/03/18 08:59:58;;;;;;;20.20;11.38;;;7.60;99.90;;;;;;2105031;68;20596;-72
2022/03/18 09:02:40;;;;;;;23.55;13.15;;;7.90;99.90;;;;;;2116919;67;20177;-74
2022/03/18 09:05:23;;;;;;;19.52;12.25;;;8.10;99.90;;;;;;2117050;67;20225;-74
2022/03/18 09:08:07;;;;;;;20.42;11.93;;;8.20;99.90;;;;;;2112094;67;20354;-74
2022/03/18 09:10:52;;;;;;;18.73;12.52;;;8.30;99.90;;;;;;2113171;67;20580;-74
2022/03/18 09:13:37;;;;;;;19.05;12.10;;;8.40;99.90;;;;;;2107432;67;20259;-74
2022/03/18 09:16:21;;;;;;;23.10;11.93;;;8.40;99.90;;;;;;2115115;67;20353;-73
2022/03/18 09:19:04;;;;;;;20.25;11.05;;;8.60;99.90;;;;;;2102449;68;20199;-74
2022/03/18 09:21:50;;;;;;;21.25;11.93;;;8.60;99.90;;;;;;2105755;68;20227;-74
2022/03/18 09:24:36;;;;;;;21.77;11.88;;;8.70;99.90;;;;;;2110065;67;20336;-73
2022/03/18 09:27:17;;;;;;;18.77;11.57;;;8.80;99.90;;;;;;2104643;67;20200;-76
2022/03/18 09:30:00;;;;;;;21.35;11.68;;;8.90;99.90;;;;;;2081853;68;20225;-75
2022/03/18 09:32:43;;;;;;;16.33;11.25;;;9.00;99.90;;;;;;2092593;68;20637;-74
2022/03/18 09:35:27;;;;;;;;;;;9.10;99.90;;;;;;2111220;67;20169;-73
2022/03/18 09:38:10;;;;;;;15.85;11.10;;;9.20;99.90;;;;;;2130758;67;20095;-75
2022/03/18 09:40:55;;;;;;;18.77;11.32;;;9.20;99.90;;;;;;2125749;67;20176;-75
2022/03/18 09:43:57;;;;;;;24.67;11.60;;;9.30;99.90;;;;;;2118925;67;20888;-75
2022/03/18 09:46:41;;;;;;;23.70;11.27;;;9.40;99.90;;;;;;2132636;67;20725;-74
2022/03/18 09:49:23;;;;;;;18.05;10.40;;;9.50;99.90;;;;;;2118113;67;20262;-74
2022/03/18 09:52:10;;;;;;;18.80;10.32;;;9.70;99.90;;;;;;2128964;67;20193;-75
2022/03/18 09:54:55;;;;;;;20.45;10.00;;;9.80;99.90;;;;;;2116718;67;20428;-75
2022/03/18 09:57:39;;;;;;;19.25;10.13;;;9.90;99.90;;;;;;2105503;67;20590;-74
2022/03/18 10:00:25;;;;;;;19.42;10.27;;;10.00;99.90;;;;;;2111419;67;20322;-71
2022/03/18 10:03:16;;;;;;;19.83;9.18;;;10.20;99.90;;;;;;2103949;68;20206;-76
2022/03/18 10:05:59;;;;;;;19.88;9.93;;;10.30;99.90;;;;;;2109688;67;20181;-71
2022/03/18 10:08:44;;;;;;;20.13;9.23;;;10.30;99.90;;;;;;2118597;67;20181;-71
2022/03/18 10:11:33;;;;;;;14.93;8.25;;;10.50;99.90;;;;;;2104632;67;20770;-72
2022/03/18 10:14:16;;;;;;;15.30;9.10;;;10.60;99.90;;;;;;2102407;68;20273;-72
2022/03/18 10:17:04;;;;;;;18.70;8.48;;;10.70;99.90;;;;;;2098562;68;20445;-72
2022/03/18 10:19:48;;;;;;;19.60;8.57;;;10.80;99.90;;;;;;2108420;67;20334;-71
2022/03/18 10:22:36;;;;;;;19.23;9.55;;;10.90;99.90;;;;;;2119635;67;20584;-70
2022/03/18 10:26:02;;;;;;;17.80;8.75;;;11.00;99.90;;;;;;2122372;67;20225;-71
2022/03/18 10:28:48;;;;;;;16.47;7.83;;;11.10;99.90;;;;;;2102383;67;20179;-70
2022/03/18 10:31:30;;;;;;;20.20;9.80;;;11.20;99.90;;;;;;2118578;67;20169;-71
2022/03/18 10:37:16;;;;;;;17.63;7.53;;;11.50;99.90;;;;;;2100622;67;20288;-70
2022/03/18 10:40:02;;;;;;;13.73;7.50;;;11.60;99.90;;;;;;2107254;67;20245;-71
2022/03/18 10:42:56;;;;;;;;;;;11.80;99.90;;;;;;2098352;68;20261;-75
2022/03/18 10:45:39;;;;;;;14.73;6.53;;;12.00;99.90;;;;;;2087091;68;20563;-73
2022/03/18 10:48:22;;;;;;;10.55;6.00;;;12.40;99.90;;;;;;2095703;68;20184;-73
2022/03/18 10:51:10;;;;;;;19.88;6.25;;;12.80;99.90;;;;;;2111612;67;20266;-74
2022/03/18 10:53:57;;;;;;;13.15;6.22;;;13.30;99.90;;;;;;2114854;67;20619;-73
2022/03/18 10:56:59;;;;;;;11.00;4.93;;;13.60;99.90;;;;;;2108975;67;20195;-74
2022/03/18 10:59:46;;;;;;;11.52;6.40;;;14.00;99.90;;;;;;2107006;67;20313;-74
2022/03/18 11:02:31;;;;;;;11.65;6.25;;;14.30;99.90;;;;;;2107327;67;20318;-74
2022/03/18 11:05:14;;;;;;;14.43;6.55;;;14.70;99.90;;;;;;2121556;67;20262;-73
2022/03/18 11:07:56;;;;;;;14.95;5.85;;;15.00;99.90;;;;;;2124985;67;20286;-74
2022/03/18 11:14:03;;;;;;;9.77;4.82;;;15.90;99.90;;;;;;2132752;67;20203;-73
2022/03/18 11:16:49;;;;;;;17.63;5.55;;;16.30;99.90;;;;;;2145168;66;20258;-73
2022/03/18 11:19:34;;;;;;;10.65;4.45;;;16.70;99.90;;;;;;2155337;66;20318;-75
2022/03/18 11:22:18;;;;;;;11.88;4.90;;;17.20;99.90;;;;;;2144222;66;20354;-75
2022/03/18 11:25:04;;;;;;;10.93;5.30;;;17.70;99.90;;;;;;2141893;66;20175;-75
2022/03/18 11:27:51;;;;;;;16.58;5.65;;;18.30;99.90;;;;;;2137774;67;20791;-74
2022/03/18 11:30:35;;;;;;;10.93;5.63;;;18.70;99.90;;;;;;2128769;67;20283;-74
2022/03/18 11:33:22;;;;;;;10.75;4.82;;;19.30;99.90;;;;;;2127708;67;20370;-74
2022/03/18 11:36:14;;;;;;;15.18;4.65;;;19.70;98.60;;;;;;2142112;66;20293;-74
2022/03/18 11:39:03;;;;;;;10.25;5.28;;;20.00;94.80;;;;;;2130375;67;21199;-73
2022/03/18 11:42:09;;;;;;;13.02;4.97;;;19.90;91.80;;;;;;2135483;67;20659;-74
2022/03/18 11:44:59;;;;;;;9.45;5.00;;;19.50;91.20;;;;;;1907129;67;15101384;-75
2022/03/18 11:47:43;;;;;;;14.52;6.03;;;19.60;90.20;;;;;;2126395;67;20316;-73
2022/03/18 11:50:41;;;;;;;11.57;5.07;;;20.00;90.30;;;;;;2117657;67;20349;-71
2022/03/18 11:53:46;;;;;;;10.38;5.10;;;20.60;87.70;;;;;;2115938;67;20216;-74
2022/03/18 11:56:46;;;;;;;13.23;5.32;;;20.70;82.70;;;;;;2111396;67;20808;-74
2022/03/18 11:59:38;;;;;;;12.48;5.47;;;20.40;81.40;;;;;;2108091;67;20308;-72
2022/03/18 12:02:20;;;;;;;9.02;5.55;;;20.40;80.70;;;;;;2118192;67;20351;-74
2022/03/18 12:05:05;;;;;;;18.17;5.45;;;21.00;79.40;;;;;;2119339;67;20177;-75
2022/03/18 12:07:49;;;;;;;10.33;4.83;;;21.70;76.40;;;;;;2132537;67;21169;-74
2022/03/18 12:10:40;;;;;;;11.50;5.82;;;22.30;73.30;;;;;;2139670;67;20353;-74
2022/03/18 12:13:22;;;;;;;13.50;5.32;;;23.00;71.90;;;;;;2140456;66;20726;-73
2022/03/18 12:16:10;;;;;;;11.20;4.65;;;23.60;67.70;;;;;;2150046;66;20362;-72
2022/03/18 12:18:59;;;;;;;11.82;5.22;;;23.80;63.80;;;;;;2143494;66;20241;-72
2022/03/18 12:21:48;;;;;;;9.05;4.40;;;24.10;62.30;;;;;;2134940;67;20365;-74
2022/03/18 12:24:32;;;;;;;10.63;4.47;;;24.50;60.10;;;;;;2149710;66;20170;-74
2022/03/18 12:27:19;;;;;;;7.00;4.15;;;24.30;57.60;;;;;;2148522;66;20232;-72
2022/03/18 12:30:03;;;;;;;9.70;4.50;;;23.50;57.30;;;;;;2150990;66;20339;-75
2022/03/18 12:33:23;;;;;;;9.88;4.78;;;23.00;58.60;;;;;;2129507;67;20807;-73
2022/03/18 12:36:06;;;;;;;9.52;5.10;;;23.90;60.50;;;;;;2108352;67;20219;-74
2022/03/18 12:38:48;;;;;;;9.93;4.75;;;24.00;57.70;;;;;;2118671;67;20181;-73
2022/03/18 12:41:30;;;;;;;11.38;5.03;;;24.10;56.50;;;;;;2137262;67;20170;-74
2022/03/18 12:44:12;;;;;;;8.52;4.65;;;24.40;56.80;;;;;;2137185;67;20174;-73
2022/03/18 12:46:55;;;;;;;12.70;4.85;;;25.10;56.30;;;;;;2151371;66;20221;-75
2022/03/18 12:49:41;;;;;;;10.10;5.38;;;26.00;54.70;;;;;;2139621;67;20599;-75
2022/03/18 12:52:23;;;;;;;10.70;4.80;;;26.70;54.50;;;;;;2115984;67;20210;-75
2022/03/18 12:55:17;;;;;;;10.85;4.75;;;27.50;52.00;;;;;;2108935;67;20199;-75
2022/03/18 12:57:59;;;;;;;9.23;4.25;;;28.00;50.70;;;;;;2139196;67;20299;-74
2022/03/18 13:00:41;;;;;;;10.07;4.50;;;28.50;50.50;;;;;;2137162;67;20246;-74
2022/03/18 13:03:30;;;;;;;12.60;4.70;;;29.00;48.00;;;;;;2132207;67;20247;-74
2022/03/18 13:06:22;;;;;;;9.57;4.22;;;29.40;47.90;;;;;;2117940;67;20212;-73
2022/03/18 13:09:13;;;;;;;9.27;4.70;;;29.60;47.90;;;;;;2125047;67;20264;-73
2022/03/18 13:11:59;;;;;;;9.57;4.47;;;30.00;46.40;;;;;;2124754;67;20333;-74
2022/03/18 13:14:45;;;;;;;11.63;4.60;;;30.40;45.00;;;;;;2122690;67;20173;-76
2022/03/18 13:17:30;;;;;;;9.65;4.35;;;30.70;44.10;;;;;;2108888;67;20287;-75
2022/03/18 13:20:22;;;;;;;10.45;4.47;;;30.80;43.10;;;;;;2101434;67;20265;-76
2022/03/18 13:23:05;;;;;;;10.70;3.88;;;30.80;43.70;;;;;;2120308;67;20177;-76
2022/03/18 13:25:50;;;;;;;9.45;4.25;;;30.90;42.70;;;;;;2114975;67;20198;-78
2022/03/18 13:28:40;;;;;;;12.40;4.43;;;31.10;42.70;;;;;;2108987;67;20223;-74
2022/03/18 13:34:41;;;;;;;13.00;4.22;;;31.70;41.70;;;;;;2109378;67;20246;-73
2022/03/18 13:37:39;;;;;;;11.57;4.15;;;31.80;41.20;;;;;;2103554;67;20217;-75
2022/03/18 13:40:23;;;;;;;11.52;4.45;;;31.70;40.70;;;;;;2094514;68;20194;-74
2022/03/18 13:43:07;;;;;;;11.88;4.75;;;31.60;40.30;;;;;;2119402;67;20188;-75
2022/03/18 13:45:49;;;;;;;10.40;4.93;;;31.30;40.80;;;;;;2126638;67;20208;-72
2022/03/18 13:48:32;;;;;;;10.75;4.47;;;31.40;40.90;;;;;;2115273;67;20277;-74
2022/03/18 13:51:49;;;;;;;11.18;4.07;;;31.40;40.40;;;;;;2111561;67;20376;-73
2022/03/18 13:54:42;;;;;;;10.10;3.90;;;31.60;40.40;;;;;;2095665;68;20251;-73
2022/03/18 13:57:26;;;;;;;10.50;4.13;;;31.80;40.60;;;;;;2093044;68;20371;-73
2022/03/18 14:00:13;;;;;;;9.98;4.15;;;31.70;39.50;;;;;;2091024;68;20242;-75
2022/03/18 14:03:28;;;;;;;11.77;3.85;;;31.90;39.50;;;;;;2099967;68;20306;-71
2022/03/18 14:06:14;;;;;;;9.13;3.75;;;32.00;40.00;;;;;;2112497;67;20312;-74
2022/03/18 14:09:13;;;;;;;9.48;3.55;;;31.90;38.70;;;;;;2111166;67;20186;-74
2022/03/18 14:12:14;;;;;;;9.23;3.90;;;31.80;39.20;;;;;;2116740;67;20354;-74
2022/03/18 14:15:17;;;;;;;;;;;31.50;38.90;;;;;;2111870;67;20373;-73
2022/03/18 14:18:04;;;;;;;;;;;31.40;40.20;;;;;;2104519;68;20203;-74
2022/03/18 14:20:48;;;;;;;12.90;4.35;;;31.40;40.30;;;;;;2107389;67;20068;-73
2022/03/18 14:23:36;;;;;;;8.35;3.75;;;31.30;39.10;;;;;;2112536;67;20194;-73
2022/03/18 14:26:19;;;;;;;10.13;3.80;;;31.00;38.90;;;;;;2106688;67;20343;-75
2022/03/18 14:29:02;;;;;;;12.18;4.25;;;30.80;38.90;;;;;;2117660;67;20209;-75
2022/03/18 14:31:44;;;;;;;10.50;4.00;;;30.60;39.10;;;;;;2121614;67;20235;-73
2022/03/18 14:34:37;;;;;;;12.32;3.75;;;30.60;39.30;;;;;;2110310;67;20215;-75
2022/03/18 14:37:20;;;;;;;9.60;3.78;;;30.20;39.20;;;;;;2113063;67;20201;-74
2022/03/18 14:40:08;;;;;;;6.40;2.97;;;30.10;39.20;;;;;;2115137;67;20322;-74